createdAt,value
2023-04-21T00:00:15.957Z,7.85
2023-04-21T00:02:43.331Z,7.70
2023-04-21T00:05:11.299Z,10.23
2023-04-21T00:07:39.505Z,8.68
2023-04-21T00:10:10.887Z,9.38
2023-04-21T00:12:38.493Z,9.93
2023-04-21T00:15:06.180Z,9.63
2023-04-21T00:17:33.190Z,13.18
2023-04-21T00:20:00.304Z,9.48
2023-04-21T00:22:27.343Z,9.63
2023-04-21T00:24:54.293Z,7.88
2023-04-21T00:27:21.564Z,7.47
2023-04-21T00:29:48.558Z,8.50
2023-04-21T00:32:16.368Z,8.23
2023-04-21T00:34:43.361Z,9.20
2023-04-21T00:37:12.312Z,9.82
2023-04-21T00:39:39.905Z,6.78
2023-04-21T00:42:06.975Z,13.45
2023-04-21T00:44:35.855Z,8.60
2023-04-21T00:47:04.131Z,11.00
2023-04-21T00:49:31.375Z,7.45
2023-04-21T00:51:58.701Z,10.02
2023-04-21T00:54:26.233Z,8.43
2023-04-21T00:56:57.037Z,8.82
2023-04-21T00:59:24.220Z,8.63
2023-04-21T01:01:52.937Z,8.88
2023-04-21T01:04:21.747Z,9.02
2023-04-21T01:06:49.106Z,8.43
2023-04-21T01:09:16.389Z,8.38
2023-04-21T01:11:59.985Z,8.55
2023-04-21T01:14:27.014Z,9.82
2023-04-21T01:16:54.042Z,9.45
2023-04-21T01:19:21.618Z,10.85
2023-04-21T01:21:49.414Z,13.77
2023-04-21T01:24:16.474Z,8.23
2023-04-21T01:26:46.184Z,7.63
2023-04-21T01:29:13.154Z,9.05
2023-04-21T01:31:40.296Z,10.25
2023-04-21T01:34:08.181Z,11.50
2023-04-21T01:36:37.362Z,8.38
2023-04-21T01:39:04.918Z,7.55
2023-04-21T01:41:31.902Z,8.73
2023-04-21T01:43:58.980Z,9.85
2023-04-21T01:46:26.124Z,9.23
2023-04-21T01:48:53.191Z,8.05
2023-04-21T01:51:20.189Z,8.93
2023-04-21T01:53:47.247Z,7.82
2023-04-21T01:56:15.475Z,8.38
2023-04-21T01:58:42.525Z,11.00
2023-04-21T02:01:09.601Z,10.13
2023-04-21T02:03:36.820Z,6.60
2023-04-21T02:06:04.281Z,11.23
2023-04-21T02:08:31.235Z,12.50
2023-04-21T02:10:58.300Z,10.70
2023-04-21T02:13:25.357Z,7.13
2023-04-21T02:16:02.447Z,7.68
2023-04-21T02:18:34.575Z,10.20
2023-04-21T02:21:03.049Z,8.05
2023-04-21T02:23:30.091Z,10.55
2023-04-21T02:25:57.110Z,9.23
2023-04-21T02:28:24.173Z,14.98
2023-04-21T02:30:51.241Z,12.85
2023-04-21T02:33:18.499Z,10.02
2023-04-21T02:35:45.592Z,7.18
2023-04-21T02:38:12.870Z,7.78
2023-04-21T02:40:42.784Z,9.82
2023-04-21T02:43:09.930Z,8.82
2023-04-21T02:45:40.713Z,6.28
2023-04-21T02:48:07.854Z,9.25
2023-04-21T02:50:34.999Z,8.55
2023-04-21T02:53:02.239Z,7.60
2023-04-21T02:55:29.395Z,13.15
2023-04-21T02:57:56.538Z,12.25
2023-04-21T03:00:24.435Z,7.90
2023-04-21T03:02:53.548Z,9.77
2023-04-21T03:05:21.242Z,7.63
2023-04-21T03:07:48.255Z,10.68
2023-04-21T03:10:15.456Z,7.80
2023-04-21T03:12:42.669Z,8.95
2023-04-21T03:15:09.836Z,9.50
2023-04-21T03:17:37.130Z,10.15
2023-04-21T03:20:08.397Z,8.52
2023-04-21T03:22:41.620Z,8.73
2023-04-21T03:25:08.828Z,9.82
2023-04-21T03:27:35.947Z,9.43
2023-04-21T03:30:04.751Z,10.18
2023-04-21T03:32:31.827Z,8.93
2023-04-21T03:34:58.890Z,11.30
2023-04-21T03:37:25.955Z,8.07
2023-04-21T03:39:53.119Z,9.18
2023-04-21T03:42:20.518Z,8.15
2023-04-21T03:44:49.125Z,11.68
2023-04-21T03:47:17.592Z,10.10
2023-04-21T03:49:44.657Z,11.02
2023-04-21T03:52:12.068Z,10.23
2023-04-21T03:54:39.000Z,14.05
2023-04-21T03:57:05.947Z,11.73
2023-04-21T03:59:32.933Z,9.93
2023-04-21T04:02:00.037Z,9.52
2023-04-21T04:04:27.334Z,11.68
2023-04-21T04:06:54.577Z,14.02
2023-04-21T04:09:21.733Z,13.63
2023-04-21T04:11:48.836Z,16.63
2023-04-21T04:14:16.049Z,16.30
2023-04-21T04:16:43.305Z,14.00
2023-04-21T04:19:10.517Z,13.88
2023-04-21T04:21:37.959Z,10.15
2023-04-21T04:24:08.894Z,16.33
2023-04-21T04:26:38.463Z,12.43
2023-04-21T04:29:06.217Z,9.73
2023-04-21T04:31:33.376Z,11.73
2023-04-21T04:34:00.346Z,14.00
2023-04-21T04:36:28.522Z,11.65
2023-04-21T04:38:56.408Z,11.30
2023-04-21T04:41:24.338Z,7.88
2023-04-21T04:43:52.278Z,10.60
2023-04-21T04:46:20.663Z,12.40
2023-04-21T04:48:48.220Z,13.50
2023-04-21T04:51:16.328Z,13.52
2023-04-21T04:53:43.329Z,8.38
2023-04-21T04:56:10.338Z,11.07
2023-04-21T04:58:37.418Z,8.75
2023-04-21T05:01:17.484Z,7.80
2023-04-21T05:03:45.905Z,8.25
2023-04-21T05:06:14.391Z,9.60
2023-04-21T05:08:41.706Z,11.73
2023-04-21T05:11:09.190Z,9.20
2023-04-21T05:13:38.395Z,6.70
2023-04-21T05:16:07.564Z,7.88
2023-04-21T05:18:34.615Z,7.85
2023-04-21T05:21:01.799Z,8.75
2023-04-21T05:23:28.859Z,8.77
2023-04-21T05:25:55.852Z,5.85
2023-04-21T05:28:23.314Z,6.75
2023-04-21T05:30:50.374Z,10.80
2023-04-21T05:33:21.468Z,8.13
2023-04-21T05:35:48.497Z,8.13
2023-04-21T05:38:15.551Z,9.20
2023-04-21T05:40:42.756Z,15.27
2023-04-21T05:43:09.755Z,5.35
2023-04-21T05:45:40.853Z,8.75
2023-04-21T05:48:08.170Z,9.75
2023-04-21T05:50:35.857Z,9.27
2023-04-21T05:53:02.930Z,9.70
2023-04-21T05:55:30.097Z,7.20
2023-04-21T05:57:59.824Z,9.13
2023-04-21T06:00:26.876Z,7.28
2023-04-21T06:02:54.291Z,9.55
2023-04-21T06:05:21.801Z,6.95
2023-04-21T06:07:48.804Z,11.13
2023-04-21T06:10:18.520Z,5.78
2023-04-21T06:12:45.806Z,9.02
2023-04-21T06:15:13.067Z,7.35
2023-04-21T06:17:40.186Z,7.50
2023-04-21T06:20:08.817Z,4.65
2023-04-21T06:22:35.855Z,12.88
2023-04-21T06:25:02.990Z,7.72
2023-04-21T06:27:30.026Z,6.38
2023-04-21T06:29:58.358Z,9.10
2023-04-21T06:32:25.429Z,4.43
2023-04-21T06:34:52.514Z,10.95
2023-04-21T06:37:19.774Z,7.50
2023-04-21T06:39:46.988Z,4.43
2023-04-21T06:42:13.985Z,9.63
2023-04-21T06:44:43.228Z,7.93
2023-04-21T06:47:10.394Z,3.92
2023-04-21T06:49:37.563Z,9.02
2023-04-21T06:52:05.074Z,7.57
2023-04-21T06:54:32.117Z,8.13
2023-04-21T06:56:59.353Z,4.60
2023-04-21T06:59:26.532Z,6.70
2023-04-21T07:01:53.605Z,6.63
2023-04-21T07:04:21.193Z,8.90
2023-04-21T07:06:49.329Z,7.03
2023-04-21T07:09:16.340Z,7.78
2023-04-21T07:11:43.429Z,3.47
2023-04-21T07:14:11.101Z,5.68
2023-04-21T07:16:38.295Z,5.40
2023-04-21T07:19:05.445Z,4.75
2023-04-21T07:21:36.247Z,4.63
2023-04-21T07:24:03.776Z,6.05
2023-04-21T07:26:30.914Z,4.50
2023-04-21T07:28:58.667Z,5.63
2023-04-21T07:31:26.104Z,3.85
2023-04-21T07:33:53.128Z,6.55
2023-04-21T07:36:20.233Z,8.30
2023-04-21T07:38:47.187Z,6.43
2023-04-21T07:41:14.393Z,7.68
2023-04-21T07:43:41.480Z,7.68
2023-04-21T07:46:08.572Z,6.93
2023-04-21T07:48:35.641Z,4.82
2023-04-21T07:51:03.513Z,6.50
2023-04-21T07:53:31.194Z,4.60
2023-04-21T07:55:58.565Z,8.73
2023-04-21T07:58:25.676Z,5.05
2023-04-21T08:00:52.803Z,6.18
2023-04-21T08:03:22.173Z,7.80
2023-04-21T08:05:51.284Z,8.27
2023-04-21T08:08:20.515Z,3.60
2023-04-21T08:10:47.651Z,8.75
2023-04-21T08:13:14.904Z,5.60
2023-04-21T08:15:41.955Z,3.13
2023-04-21T08:18:09.492Z,4.65
2023-04-21T08:20:36.648Z,6.18
2023-04-21T08:23:03.776Z,6.57
2023-04-21T08:25:31.093Z,9.13
2023-04-21T08:27:58.109Z,8.60
2023-04-21T08:30:27.889Z,4.63
2023-04-21T08:32:55.492Z,5.05
2023-04-21T08:35:22.879Z,4.05
2023-04-21T08:37:51.511Z,8.43
2023-04-21T08:40:19.800Z,4.72
2023-04-21T08:42:48.479Z,3.58
2023-04-21T08:45:15.682Z,9.95
2023-04-21T08:47:43.106Z,5.78
2023-04-21T08:50:14.025Z,6.25
2023-04-21T08:52:41.069Z,7.47
2023-04-21T08:55:09.940Z,8.60
2023-04-21T08:57:37.071Z,4.57
2023-04-21T09:00:07.886Z,9.02
2023-04-21T09:03:00.190Z,5.45
2023-04-21T09:05:33.902Z,10.27
2023-04-21T09:08:12.461Z,7.20
2023-04-21T09:10:48.127Z,11.75
2023-04-21T09:13:16.169Z,5.82
2023-04-21T09:15:44.798Z,5.45
2023-04-21T09:18:15.834Z,11.73
2023-04-21T09:20:45.279Z,10.52
2023-04-21T09:23:12.534Z,7.80
2023-04-21T09:25:41.450Z,6.97
2023-04-21T09:28:17.496Z,6.93
2023-04-21T09:30:44.552Z,8.90
2023-04-21T09:33:28.942Z,5.88
2023-04-21T09:36:02.155Z,3.38
2023-04-21T09:38:29.179Z,7.47
2023-04-21T09:40:59.963Z,6.32
2023-04-21T09:43:27.071Z,5.25
2023-04-21T09:45:56.088Z,4.28
2023-04-21T09:48:29.522Z,7.65
2023-04-21T09:53:29.646Z,5.37
2023-04-21T09:55:59.856Z,6.40
2023-04-21T09:58:35.112Z,4.28
2023-04-21T10:01:04.596Z,4.35
2023-04-21T10:03:32.620Z,3.70
2023-04-21T10:06:00.919Z,7.57
2023-04-21T10:08:28.114Z,5.97
2023-04-21T10:10:55.535Z,4.57
2023-04-21T10:13:23.111Z,8.35
2023-04-21T10:16:05.192Z,10.30
2023-04-21T10:18:32.238Z,7.43
2023-04-21T10:21:04.629Z,5.03
2023-04-21T10:26:16.860Z,5.63
2023-04-21T10:29:06.971Z,9.45
2023-04-21T10:31:51.770Z,6.53
2023-04-21T10:34:21.304Z,8.35
2023-04-21T10:36:54.600Z,5.53
2023-04-21T10:39:42.804Z,8.18
2023-04-21T10:42:13.136Z,6.07
2023-04-21T10:44:58.560Z,4.93
2023-04-21T10:47:27.174Z,5.03
2023-04-21T10:49:56.754Z,7.15
2023-04-21T10:52:33.855Z,5.70
2023-04-21T10:55:12.616Z,7.85
2023-04-21T10:57:42.867Z,5.88
2023-04-21T11:00:11.575Z,4.72
2023-04-21T11:02:40.461Z,4.53
2023-04-21T11:05:10.464Z,5.68
2023-04-21T11:07:37.723Z,6.47
2023-04-21T11:10:07.983Z,7.82
2023-04-21T11:12:38.408Z,6.28
2023-04-21T11:15:10.848Z,6.68
2023-04-21T11:20:11.261Z,6.07
2023-04-21T11:22:38.838Z,7.18
2023-04-21T11:25:06.671Z,8.13
2023-04-21T11:27:33.710Z,6.80
2023-04-21T11:30:04.161Z,5.10
2023-04-21T11:32:31.474Z,4.18
2023-04-21T11:34:58.564Z,5.82
2023-04-21T11:37:27.948Z,4.57
2023-04-21T11:40:01.696Z,7.53
2023-04-21T11:42:29.201Z,7.57
2023-04-21T11:44:59.865Z,8.55
2023-04-21T11:47:28.877Z,6.45
2023-04-21T11:49:58.244Z,6.63
2023-04-21T11:52:33.490Z,3.92
2023-04-21T11:55:03.297Z,6.43
2023-04-21T11:57:32.630Z,7.60
2023-04-21T12:00:00.969Z,5.80
2023-04-21T12:02:30.470Z,6.32
2023-04-21T12:05:15.950Z,8.55
2023-04-21T12:07:45.210Z,3.88
2023-04-21T12:10:21.531Z,7.43
2023-04-21T12:12:48.927Z,5.10
2023-04-21T12:15:21.609Z,7.63
2023-04-21T12:17:51.345Z,8.85
2023-04-21T12:20:20.881Z,6.32
2023-04-21T12:22:49.103Z,5.53
2023-04-21T12:25:16.626Z,5.18
2023-04-21T12:27:57.396Z,6.88
2023-04-21T12:30:24.647Z,7.50
2023-04-21T12:32:52.482Z,3.67
2023-04-21T12:35:19.588Z,4.38
2023-04-21T12:37:49.098Z,11.18
2023-04-21T12:40:16.204Z,4.38
2023-04-21T12:42:43.237Z,5.00
2023-04-21T12:45:10.629Z,5.53
2023-04-21T12:47:37.786Z,5.63
2023-04-21T12:50:05.384Z,6.13
2023-04-21T12:52:32.420Z,5.38
2023-04-21T12:54:59.487Z,5.95
2023-04-21T12:57:26.572Z,6.50
2023-04-21T12:59:53.688Z,4.55
2023-04-21T13:02:21.126Z,6.55
2023-04-21T13:04:48.282Z,4.55
2023-04-21T13:07:16.282Z,6.32
2023-04-21T13:09:43.713Z,5.90
2023-04-21T13:12:10.686Z,6.25
2023-04-21T13:14:37.710Z,6.43
2023-04-21T13:17:06.219Z,8.45
2023-04-21T13:19:33.663Z,5.00
2023-04-21T13:22:01.064Z,7.80
2023-04-21T13:24:28.091Z,4.78
2023-04-21T13:26:56.129Z,8.57
2023-04-21T13:29:23.227Z,4.82
2023-04-21T13:31:50.435Z,5.97
2023-04-21T13:34:17.384Z,5.50
2023-04-21T13:36:44.429Z,7.82
2023-04-21T13:39:11.798Z,4.57
2023-04-21T13:41:38.870Z,6.95
2023-04-21T13:44:06.177Z,7.57
2023-04-21T13:46:33.312Z,4.65
2023-04-21T13:49:00.518Z,6.45
2023-04-21T13:51:27.561Z,6.82
2023-04-21T13:53:54.695Z,6.93
2023-04-21T13:56:22.049Z,7.07
2023-04-21T13:58:49.949Z,6.38
2023-04-21T14:01:18.535Z,8.32
2023-04-21T14:03:47.098Z,8.93
2023-04-21T14:06:14.261Z,5.88
2023-04-21T14:08:41.386Z,6.90
2023-04-21T14:11:08.413Z,4.65
2023-04-21T14:13:44.702Z,6.45
2023-04-21T14:16:15.177Z,5.45
2023-04-21T14:18:45.197Z,5.43
2023-04-21T14:21:12.353Z,6.85
2023-04-21T14:23:39.707Z,8.27
2023-04-21T14:26:06.782Z,9.18
2023-04-21T14:28:34.351Z,6.97
2023-04-21T14:31:01.927Z,7.72
2023-04-21T14:33:29.752Z,7.00
2023-04-21T14:35:56.960Z,6.45
2023-04-21T14:38:24.548Z,6.45
2023-04-21T14:40:54.555Z,6.00
2023-04-21T14:43:22.218Z,4.50
2023-04-21T14:45:49.598Z,6.63
2023-04-21T14:48:16.778Z,5.32
2023-04-21T14:50:44.286Z,7.63
2023-04-21T14:53:11.396Z,6.22
2023-04-21T14:55:38.638Z,5.20
2023-04-21T14:58:05.780Z,5.25
2023-04-21T15:00:34.763Z,5.57
2023-04-21T15:03:02.181Z,4.82
2023-04-21T15:05:29.426Z,9.15
2023-04-21T15:07:56.600Z,7.53
2023-04-21T15:10:23.615Z,5.70
2023-04-21T15:12:50.748Z,7.38
2023-04-21T15:15:18.013Z,5.22
2023-04-21T15:17:45.174Z,4.43
2023-04-21T15:20:12.181Z,5.03
2023-04-21T15:22:39.412Z,5.00
2023-04-21T15:25:06.845Z,8.48
2023-04-21T15:27:34.573Z,4.90
2023-04-21T15:30:02.392Z,5.25
2023-04-21T15:32:30.024Z,6.22
2023-04-21T15:34:57.049Z,6.50
2023-04-21T15:37:25.785Z,7.78
2023-04-21T15:39:53.155Z,4.28
2023-04-21T15:42:20.686Z,7.10
2023-04-21T15:44:47.879Z,5.63
2023-04-21T15:47:17.040Z,4.85
2023-04-21T15:49:44.336Z,9.68
2023-04-21T15:52:11.609Z,8.00
2023-04-21T15:54:39.148Z,6.50
2023-04-21T15:57:06.570Z,10.43
2023-04-21T15:59:33.670Z,7.43
2023-04-21T16:02:00.898Z,6.68
2023-04-21T16:04:28.401Z,5.28
2023-04-21T16:06:55.778Z,6.72
2023-04-21T16:09:22.770Z,6.97
2023-04-21T16:11:50.394Z,3.97
2023-04-21T16:14:18.502Z,8.02
2023-04-21T16:16:46.265Z,5.00
2023-04-21T16:19:13.558Z,8.70
2023-04-21T16:21:40.973Z,5.68
2023-04-21T16:24:08.767Z,7.78
2023-04-21T16:26:36.831Z,5.43
2023-04-21T16:29:04.018Z,4.60
2023-04-21T16:31:31.669Z,6.53
2023-04-21T16:34:00.339Z,6.70
2023-04-21T16:36:28.636Z,7.10
2023-04-21T16:38:56.296Z,5.45
2023-04-21T16:41:23.564Z,4.97
2023-04-21T16:43:50.862Z,6.38
2023-04-21T16:46:18.378Z,5.63
2023-04-21T16:48:46.208Z,5.53
2023-04-21T16:51:13.315Z,7.65
2023-04-21T16:53:42.085Z,5.00
2023-04-21T16:56:09.654Z,7.10
2023-04-21T16:58:37.885Z,7.13
2023-04-21T17:01:07.568Z,5.72
2023-04-21T17:03:35.065Z,6.85
2023-04-21T17:06:04.665Z,5.47
2023-04-21T17:08:31.805Z,5.70
2023-04-21T17:11:00.286Z,7.60
2023-04-21T17:13:27.463Z,29.17
2023-04-21T17:15:54.561Z,30.45
2023-04-21T17:18:21.871Z,22.65
2023-04-21T17:20:48.880Z,29.40
2023-04-21T17:23:15.998Z,34.28
2023-04-21T17:25:43.189Z,36.28
2023-04-21T17:28:10.647Z,33.97
2023-04-21T17:30:37.797Z,30.50
2023-04-21T17:33:16.135Z,31.50
2023-04-21T17:36:01.763Z,29.15
2023-04-21T17:38:30.358Z,25.08
2023-04-21T17:40:57.369Z,24.27
2023-04-21T17:43:24.575Z,21.08
2023-04-21T17:45:52.497Z,19.70
2023-04-21T17:48:20.037Z,20.92
2023-04-21T17:50:47.110Z,22.10
2023-04-21T17:53:14.188Z,21.15
2023-04-21T17:55:41.335Z,18.05
2023-04-21T17:58:11.606Z,18.45
2023-04-21T18:00:39.666Z,16.90
2023-04-21T18:03:07.376Z,16.85
2023-04-21T18:05:34.993Z,17.05
2023-04-21T18:08:02.986Z,17.15
2023-04-21T18:10:30.223Z,16.75
2023-04-21T18:12:58.298Z,19.75
2023-04-21T18:15:25.786Z,17.17
2023-04-21T18:17:53.477Z,21.77
2023-04-21T18:20:20.769Z,22.85
2023-04-21T18:22:50.664Z,26.20
2023-04-21T18:25:30.608Z,43.72
2023-04-21T18:28:07.405Z,68.03
2023-04-21T18:30:34.994Z,63.97
2023-04-21T18:33:02.713Z,57.95
2023-04-21T18:35:32.103Z,42.25
2023-04-21T18:38:00.030Z,48.47
2023-04-21T18:40:27.630Z,38.95
2023-04-21T18:42:54.904Z,36.50
2023-04-21T18:45:22.505Z,31.05
2023-04-21T18:47:50.498Z,37.88
2023-04-21T18:50:19.604Z,32.90
2023-04-21T18:52:47.606Z,32.17
2023-04-21T18:55:15.853Z,31.05
2023-04-21T18:57:43.405Z,28.17
2023-04-21T19:00:11.314Z,26.67
2023-04-21T19:02:39.666Z,24.88
2023-04-21T19:05:07.841Z,24.15
2023-04-21T19:07:36.332Z,24.20
2023-04-21T19:10:04.962Z,25.55
2023-04-21T19:12:33.014Z,22.85
2023-04-21T19:15:01.710Z,33.13
2023-04-21T19:17:29.230Z,32.45
2023-04-21T19:19:57.525Z,31.75
2023-04-21T19:22:24.964Z,39.70
2023-04-21T19:24:53.476Z,44.33
2023-04-21T19:27:20.881Z,44.17
2023-04-21T19:29:51.448Z,51.63
2023-04-21T19:32:19.768Z,51.95
2023-04-21T19:34:47.882Z,49.25
2023-04-21T19:37:16.486Z,51.28
2023-04-21T19:39:44.407Z,44.90
2023-04-21T19:42:12.271Z,38.60
2023-04-21T19:44:40.341Z,45.35
2023-04-21T19:47:08.675Z,40.78
2023-04-21T19:49:36.931Z,34.60
2023-04-21T19:52:04.262Z,31.00
2023-04-21T19:54:32.712Z,33.15
2023-04-21T19:57:00.527Z,28.23
2023-04-21T19:59:28.504Z,28.20
2023-04-21T20:01:56.463Z,26.58
2023-04-21T20:04:24.055Z,34.97
2023-04-21T20:06:51.728Z,25.80
2023-04-21T20:09:19.104Z,23.65
2023-04-21T20:11:46.629Z,31.15
2023-04-21T20:14:13.945Z,27.00
2023-04-21T20:16:43.139Z,26.75
2023-04-21T20:19:13.827Z,30.80
2023-04-21T20:21:41.029Z,35.70
2023-04-21T20:24:09.169Z,41.40
2023-04-21T20:26:37.181Z,47.40
2023-04-21T20:29:05.069Z,39.83
2023-04-21T20:31:33.338Z,41.88
2023-04-21T20:34:00.932Z,52.47
2023-04-21T20:36:28.567Z,43.10
2023-04-21T20:38:57.376Z,54.55
2023-04-21T20:41:24.619Z,47.35
2023-04-21T20:43:52.251Z,51.75
2023-04-21T20:46:19.533Z,48.55
2023-04-21T20:48:47.256Z,43.15
2023-04-21T20:51:14.394Z,45.25
2023-04-21T20:53:41.386Z,44.72
2023-04-21T20:56:08.477Z,50.50
2023-04-21T20:58:36.183Z,49.08
2023-04-21T21:01:03.329Z,45.42
2023-04-21T21:03:31.004Z,55.30
2023-04-21T21:05:58.155Z,52.00
2023-04-21T21:08:25.414Z,44.38
2023-04-21T21:10:52.422Z,49.28
2023-04-21T21:13:19.457Z,44.00
2023-04-21T21:15:46.949Z,40.30
2023-04-21T21:18:14.025Z,48.70
2023-04-21T21:20:41.214Z,59.45
2023-04-21T21:23:08.288Z,46.97
2023-04-21T21:25:35.734Z,42.10
2023-04-21T21:28:02.815Z,38.67
2023-04-21T21:30:29.824Z,47.28
2023-04-21T21:32:56.883Z,46.63
2023-04-21T21:35:24.029Z,44.42
2023-04-21T21:37:51.080Z,40.25
2023-04-21T21:40:18.092Z,37.78
2023-04-21T21:42:45.036Z,40.85
2023-04-21T21:45:12.355Z,44.20
2023-04-21T21:47:42.936Z,43.55
2023-04-21T21:50:14.708Z,41.15
2023-04-21T21:52:42.020Z,43.53
2023-04-21T21:55:09.531Z,42.55
2023-04-21T21:57:37.005Z,46.33
2023-04-21T22:00:08.276Z,50.65
2023-04-21T22:02:36.098Z,40.88
2023-04-21T22:05:04.438Z,41.45
2023-04-21T22:07:31.581Z,45.35
2023-04-21T22:09:59.907Z,43.33
2023-04-21T22:12:27.088Z,41.33
2023-04-21T22:14:54.181Z,37.88
2023-04-21T22:17:22.685Z,45.65
2023-04-21T22:19:49.779Z,40.97
2023-04-21T22:22:16.977Z,45.55
2023-04-21T22:24:44.016Z,46.80
2023-04-21T22:27:11.166Z,58.00
2023-04-21T22:29:38.681Z,48.08
2023-04-21T22:32:06.397Z,39.47
2023-04-21T22:34:33.535Z,41.15
2023-04-21T22:37:00.557Z,38.53
2023-04-21T22:39:28.913Z,47.45
2023-04-21T22:41:57.396Z,45.85
2023-04-21T22:44:24.808Z,46.30
2023-04-21T22:46:52.044Z,48.35
2023-04-21T22:49:19.085Z,44.58
2023-04-21T22:51:47.345Z,46.58
2023-04-21T22:54:14.905Z,52.10
2023-04-21T22:56:42.280Z,44.03
2023-04-21T22:59:09.292Z,50.25
2023-04-21T23:01:36.304Z,42.72
2023-04-21T23:04:03.562Z,43.97
2023-04-21T23:06:32.060Z,43.95
2023-04-21T23:08:59.032Z,45.15
2023-04-21T23:11:26.168Z,41.65
2023-04-21T23:13:53.233Z,38.10
2023-04-21T23:16:20.383Z,42.63
2023-04-21T23:18:47.481Z,46.65
2023-04-21T23:21:14.755Z,45.17
2023-04-21T23:23:41.758Z,40.55
2023-04-21T23:26:08.793Z,40.45
2023-04-21T23:28:35.846Z,40.58
2023-04-21T23:31:02.949Z,36.95
2023-04-21T23:33:30.029Z,38.40
2023-04-21T23:35:57.252Z,43.90
2023-04-21T23:38:24.228Z,40.85
2023-04-21T23:40:51.276Z,38.97
2023-04-21T23:43:18.233Z,40.95
2023-04-21T23:45:45.502Z,34.60
2023-04-21T23:48:12.529Z,34.35
2023-04-21T23:50:39.570Z,36.72
2023-04-21T23:53:06.603Z,32.17
2023-04-21T23:55:33.686Z,36.03
2023-04-21T23:58:00.678Z,36.47
